Time;durP1;ratioP1;P1;durP2;ratioP2;P2;SDS_P1;SDS_P2;PMS_P1;PMS_P2;Temp;Humidity;BMP_temperature;BMP_pressure;BME280_temperature;BME280_humidity;BME280_pressure;Samples;Min_cycle;Max_cycle;Signal;HPM_P1;HPM_P2
2021/08/09 00:02:02;;;;;;;3.50;2.70;;;;;;;24.84;nan;95138.91;5318306;23;20061;-72
2021/08/09 00:04:28;;;;;;;5.40;2.47;;;;;;;24.78;nan;95140.25;5012429;28;20145;-73
2021/08/09 00:06:53;;;;;;;5.05;2.40;;;;;;;24.75;nan;95141.28;5027196;28;20033;-73
2021/08/09 00:09:19;;;;;;;3.85;2.50;;;;;;;24.71;nan;95147.03;5024303;28;20590;-74
2021/08/09 00:11:44;;;;;;;4.90;2.20;;;;;;;24.62;nan;95141.19;5026913;28;20030;-74
2021/08/09 00:14:10;;;;;;;5.90;2.40;;;;;;;24.54;nan;95149.22;5025572;28;20039;-72
2021/08/09 00:16:35;;;;;;;4.05;2.08;;;;;;;24.52;nan;95151.00;5027300;28;20099;-74
2021/08/09 00:19:00;;;;;;;3.53;2.83;;;;;;;24.50;nan;95153.50;5015710;28;20029;-74
2021/08/09 00:21:26;;;;;;;4.18;2.40;;;;;;;24.46;nan;95153.03;5027538;28;20087;-74
2021/08/09 00:23:52;;;;;;;5.53;2.60;;;;;;;24.40;nan;95146.91;5009329;28;20041;-74
2021/08/09 00:26:19;;;;;;;4.80;2.80;;;;;;;24.37;nan;95145.19;5028927;28;20018;-75
2021/08/09 00:28:45;;;;;;;5.40;2.67;;;;;;;24.34;nan;95157.13;5026923;28;20617;-73
2021/08/09 00:31:10;;;;;;;4.65;2.70;;;;;;;24.29;nan;95155.19;5027419;28;20029;-74
2021/08/09 00:33:35;;;;;;;3.78;2.60;;;;;;;24.30;nan;95145.00;5026031;28;20025;-73
2021/08/09 00:36:01;;;;;;;6.47;2.88;;;;;;;24.22;nan;95139.38;5027005;28;20059;-73
2021/08/09 00:38:26;;;;;;;4.38;2.90;;;;;;;24.24;nan;95153.22;5021750;28;20029;-74
2021/08/09 00:40:52;;;;;;;4.25;2.70;;;;;;;24.20;nan;95147.34;4989501;28;20064;-74
2021/08/09 00:43:17;;;;;;;5.60;3.15;;;;;;;24.16;nan;95152.31;5011074;28;20107;-72
2021/08/09 00:45:42;;;;;;;10.23;5.75;;;;;;;24.15;nan;95145.38;5024535;28;20522;-73
2021/08/09 00:48:08;;;;;;;8.07;3.28;;;;;;;24.13;nan;95136.97;5025013;28;20048;-72
2021/08/09 00:50:33;;;;;;;6.22;3.53;;;;;;;24.10;nan;95138.00;5020653;28;20024;-72
2021/08/09 00:52:59;;;;;;;4.30;2.72;;;;;;;24.03;nan;95127.63;5023088;28;20450;-72
2021/08/09 00:55:24;;;;;;;4.93;2.95;;;;;;;24.07;nan;95139.00;4988102;28;20032;-72
2021/08/09 00:57:50;;;;;;;3.80;2.92;;;;;;;24.05;nan;95141.53;5005118;28;20412;-73
2021/08/09 01:00:15;;;;;;;5.43;3.78;;;;;;;24.01;nan;95130.13;4988059;28;20041;-72
2021/08/09 01:02:40;;;;;;;3.60;2.35;;;;;;;23.99;nan;95142.81;5005349;28;20069;-72
2021/08/09 01:05:07;;;;;;;4.28;2.65;;;;;;;23.95;nan;95137.63;5017996;28;20503;-73
2021/08/09 01:07:51;;;;;;;4.75;2.50;;;;;;;23.93;nan;95134.69;5025151;28;20025;-73
2021/08/09 01:10:29;;;;;;;6.32;3.10;;;;;;;23.84;nan;95136.25;5025796;28;20079;-73
2021/08/09 01:13:11;;;;;;;4.30;2.97;;;;;;;23.85;nan;95133.00;4979336;28;20572;-72
2021/08/09 01:15:38;;;;;;;4.88;2.80;;;;;;;23.84;nan;95141.72;5006155;28;20029;-73
2021/08/09 01:18:04;;;;;;;4.82;2.85;;;;;;;23.85;nan;95148.66;4987799;28;20493;-72
2021/08/09 01:20:50;;;;;;;4.40;3.15;;;;;;;23.83;nan;95156.63;4987783;28;20029;-73
2021/08/09 01:23:40;;;;;;;5.78;3.17;;;;;;;23.77;nan;95153.19;5008728;28;20041;-73
2021/08/09 01:26:10;;;;;;;4.75;2.67;;;;;;;23.73;nan;95150.00;5025169;28;20132;-73
2021/08/09 01:28:36;;;;;;;4.35;2.90;;;;;;;23.69;nan;95154.97;5006681;28;20055;-73
2021/08/09 01:31:01;;;;;;;4.57;3.00;;;;;;;23.69;nan;95157.69;5023628;28;20029;-73
2021/08/09 01:33:27;;;;;;;4.43;3.22;;;;;;;23.65;nan;95151.78;5024077;28;20041;-73
2021/08/09 01:35:54;;;;;;;4.07;3.10;;;;;;;23.70;nan;95142.81;5024201;28;20103;-73
2021/08/09 01:38:20;;;;;;;3.78;2.63;;;;;;;23.74;nan;95144.03;5001462;28;21005;-73
2021/08/09 01:40:46;;;;;;;4.25;2.90;;;;;;;23.72;nan;95134.88;5006289;28;20040;-75
2021/08/09 01:43:11;;;;;;;5.03;2.97;;;;;;;23.74;nan;95148.75;5014262;28;20021;-75
2021/08/09 01:45:37;;;;;;;4.88;3.17;;;;;;;23.71;nan;95144.31;5006990;28;20040;-74
2021/08/09 01:48:03;;;;;;;4.47;3.20;;;;;;;23.67;nan;95154.75;5020774;28;20026;-74
2021/08/09 01:50:28;;;;;;;3.67;2.63;;;;;;;23.60;nan;95149.81;5024641;28;20033;-74
2021/08/09 01:52:53;;;;;;;6.05;3.00;;;;;;;23.55;nan;95156.78;4990810;28;20043;-73
2021/08/09 01:55:19;;;;;;;3.97;3.05;;;;;;;23.49;nan;95155.34;5006438;28;20025;-74
2021/08/09 01:57:44;;;;;;;4.07;2.75;;;;;;;23.44;nan;95153.41;5025655;28;20033;-74
2021/08/09 02:00:12;;;;;;;4.57;2.72;;;;;;;23.46;nan;95161.81;5007623;28;20495;-73
2021/08/09 02:02:38;;;;;;;4.57;3.20;;;;;;;23.45;nan;95165.75;5019979;28;20053;-73
2021/08/09 02:05:05;;;;;;;5.50;3.40;;;;;;;23.40;nan;95164.56;5005037;28;20113;-73
2021/08/09 02:07:33;;;;;;;3.58;2.90;;;;;;;23.32;nan;95162.91;5004609;28;20627;-74
2021/08/09 02:09:58;;;;;;;4.95;3.20;;;;;;;23.36;nan;95157.16;5003236;28;20030;-74
2021/08/09 02:12:23;;;;;;;3.55;2.92;;;;;;;23.35;nan;95167.34;4997625;28;20085;-74
2021/08/09 02:14:54;;;;;;;3.88;2.72;;;;;;;23.34;nan;95170.56;4972405;28;20416;-74
2021/08/09 02:17:36;;;;;;;3.88;3.05;;;;;;;23.32;nan;95173.78;4971339;28;20033;-74
2021/08/09 02:20:34;;;;;;;3.30;2.80;;;;;;;23.34;nan;95176.75;4989456;28;20030;-73
2021/08/09 02:23:05;;;;;;;6.30;3.40;;;;;;;23.34;nan;95176.75;4972016;28;20427;-74
2021/08/09 02:25:32;;;;;;;4.50;3.17;;;;;;;23.33;nan;95174.53;5009152;28;20032;-73
2021/08/09 02:28:01;;;;;;;3.42;2.75;;;;;;;23.35;nan;95172.03;5007285;28;20679;-73
2021/08/09 02:30:30;;;;;;;5.20;3.10;;;;;;;23.34;nan;95176.00;5009387;28;20025;-74
2021/08/09 02:32:58;;;;;;;3.72;2.65;;;;;;;23.31;nan;95183.22;5007080;28;20033;-74
2021/08/09 02:35:23;;;;;;;4.20;3.25;;;;;;;23.30;nan;95198.06;4991538;28;20452;-74
2021/08/09 02:37:49;;;;;;;4.35;2.80;;;;;;;23.24;nan;95183.72;5006706;28;20076;-74
2021/08/09 02:40:14;;;;;;;3.47;2.90;;;;;;;23.23;nan;95193.16;4991293;28;20112;-74
2021/08/09 02:42:40;;;;;;;4.88;2.95;;;;;;;23.23;nan;95187.72;4997649;28;20038;-74
2021/08/09 02:45:06;;;;;;;4.07;3.13;;;;;;;23.21;nan;95195.63;4972616;28;20030;-74
2021/08/09 02:47:33;;;;;;;3.85;3.13;;;;;;;23.13;nan;95178.34;4987793;28;20544;-73
2021/08/09 02:49:59;;;;;;;4.50;2.90;;;;;;;23.15;nan;95186.03;4955282;28;20504;-75
2021/08/09 02:52:25;;;;;;;4.30;3.00;;;;;;;23.13;nan;95188.50;5001205;28;20573;-74
2021/08/09 02:54:50;;;;;;;3.50;2.80;;;;;;;23.08;nan;95192.75;5008225;28;20037;-73
2021/08/09 02:57:16;;;;;;;4.18;3.00;;;;;;;23.03;nan;95195.47;4991107;28;20030;-75
2021/08/09 02:59:41;;;;;;;4.15;2.85;;;;;;;22.97;nan;95198.25;5007443;28;20034;-74
2021/08/09 03:02:07;;;;;;;4.57;3.00;;;;;;;23.02;nan;95200.19;4988969;28;20116;-75
2021/08/09 03:04:33;;;;;;;4.60;2.97;;;;;;;23.02;nan;95205.66;5014278;28;20114;-74
2021/08/09 03:06:59;;;;;;;3.65;3.17;;;;;;;23.01;nan;95214.31;5013136;28;20120;-74
2021/08/09 03:09:24;;;;;;;4.50;3.10;;;;;;;23.00;nan;95213.59;5047739;28;20035;-74
2021/08/09 03:11:50;;;;;;;3.85;2.90;;;;;;;22.98;nan;95216.06;5007379;28;20029;-73
2021/08/09 03:14:22;;;;;;;4.85;3.17;;;;;;;22.98;nan;95216.06;5028169;28;20521;-73
2021/08/09 03:16:48;;;;;;;4.65;3.13;;;;;;;22.95;nan;95227.94;5025759;28;20049;-74
2021/08/09 03:19:13;;;;;;;6.20;3.15;;;;;;;22.96;nan;95223.25;5027784;28;20063;-74
2021/08/09 03:21:39;;;;;;;4.88;3.08;;;;;;;22.96;nan;95217.81;5028134;28;20083;-73
2021/08/09 03:24:04;;;;;;;5.05;3.28;;;;;;;22.94;nan;95215.59;5020884;28;20495;-73
2021/08/09 03:26:30;;;;;;;3.85;3.15;;;;;;;22.95;nan;95211.63;5008732;28;20760;-73
2021/08/09 03:28:55;;;;;;;4.07;3.10;;;;;;;22.93;nan;95214.09;5007399;28;20044;-74
2021/08/09 03:31:20;;;;;;;3.90;2.80;;;;;;;22.92;nan;95261.59;5008363;28;20053;-74
2021/08/09 03:33:46;;;;;;;6.32;3.53;;;;;;;22.91;nan;95211.13;5003169;28;20092;-74
2021/08/09 03:36:11;;;;;;;5.53;3.13;;;;;;;22.90;nan;95222.53;5008306;28;20084;-74
2021/08/09 03:38:37;;;;;;;3.95;2.90;;;;;;;22.85;nan;95211.63;5007167;28;20118;-74
2021/08/09 03:41:02;;;;;;;5.32;3.42;;;;;;;22.89;nan;95223.75;5027445;28;20029;-74
2021/08/09 03:43:28;;;;;;;4.88;3.35;;;;;;;22.88;nan;95223.03;5026120;28;20488;-74
2021/08/09 03:45:53;;;;;;;3.47;3.03;;;;;;;22.89;nan;95219.03;5027048;28;20064;-74
2021/08/09 03:48:19;;;;;;;5.80;3.10;;;;;;;22.89;nan;95224.47;5027033;28;20030;-74
2021/08/09 03:50:44;;;;;;;5.65;3.50;;;;;;;22.86;nan;95218.56;5027749;28;20032;-74
2021/08/09 03:53:10;;;;;;;4.70;3.03;;;;;;;22.80;nan;95231.47;5027408;28;20033;-74
2021/08/09 03:55:35;;;;;;;5.20;3.13;;;;;;;22.76;nan;95225.53;5027320;28;20423;-73
2021/08/09 03:58:01;;;;;;;5.32;3.33;;;;;;;22.72;nan;95230.47;5026229;28;20571;-74
2021/08/09 04:00:27;;;;;;;5.03;3.30;;;;;;;22.64;nan;95235.69;5024516;28;20408;-74
2021/08/09 04:02:53;;;;;;;6.25;3.30;;;;;;;22.66;nan;95232.47;5007561;28;20057;-74
2021/08/09 04:05:18;;;;;;;6.25;3.95;;;;;;;22.68;nan;95230.00;5026664;28;20028;-73
2021/08/09 04:07:43;;;;;;;5.82;3.17;;;;;;;22.69;nan;95236.91;5025865;28;20013;-74
2021/08/09 04:10:09;;;;;;;5.97;3.40;;;;;;;22.70;nan;95243.84;5026876;28;20025;-74
2021/08/09 04:12:35;;;;;;;5.18;3.30;;;;;;;22.66;nan;95243.34;5027252;28;20035;-74
2021/08/09 04:15:00;;;;;;;3.88;3.22;;;;;;;22.68;nan;95235.47;5027404;28;20526;-73
2021/08/09 04:17:26;;;;;;;6.05;3.30;;;;;;;22.68;nan;95235.47;5027205;28;20603;-74
2021/08/09 04:19:51;;;;;;;5.63;3.22;;;;;;;22.71;nan;95234.47;5025429;28;20029;-75
2021/08/09 04:22:17;;;;;;;4.95;3.38;;;;;;;22.70;nan;95232.97;5025837;28;20025;-75
2021/08/09 04:24:42;;;;;;;4.60;3.13;;;;;;;22.66;nan;95232.47;5026176;28;20028;-75
2021/08/09 04:27:08;;;;;;;4.35;3.10;;;;;;;22.70;nan;95227.53;5026146;28;20025;-74
2021/08/09 04:29:33;;;;;;;5.38;3.40;;;;;;;22.59;nan;95211.22;5026965;28;20029;-75
2021/08/09 04:31:58;;;;;;;6.57;4.15;;;;;;;22.71;nan;95234.47;5025746;28;20408;-73
2021/08/09 04:34:24;;;;;;;4.53;3.25;;;;;;;22.70;nan;95238.41;5026856;28;20029;-73
2021/08/09 04:36:49;;;;;;;8.00;3.65;;;;;;;22.72;nan;95241.38;5026536;28;20017;-73
2021/08/09 04:39:15;;;;;;;8.07;3.75;;;;;;;22.75;nan;95235.69;5024781;28;20156;-73
2021/08/09 04:41:40;;;;;;;5.07;3.40;;;;;;;22.79;nan;95240.88;5024661;28;20456;-73
2021/08/09 04:44:06;;;;;;;7.72;3.40;;;;;;;22.86;nan;95245.81;5025410;28;20451;-73
2021/08/09 04:46:32;;;;;;;5.28;3.40;;;;;;;22.89;nan;95245.53;5026367;28;20028;-73
2021/08/09 04:48:57;;;;;;;5.22;3.00;;;;;;;22.94;nan;95253.72;5026283;28;20025;-71
2021/08/09 04:51:22;;;;;;;5.20;3.60;;;;;;;22.98;nan;95254.19;5016835;28;20115;-72
2021/08/09 04:53:48;;;;;;;5.38;3.45;;;;;;;23.03;nan;95267.06;5013180;28;20503;-72
2021/08/09 04:56:13;;;;;;;7.35;3.58;;;;;;;23.11;nan;95262.56;5026308;28;20445;-73
2021/08/09 04:58:39;;;;;;;5.93;3.35;;;;;;;23.20;nan;95265.00;5025802;28;20495;-69
2021/08/09 05:01:04;;;;;;;5.53;3.20;;;;;;;23.36;nan;95268.91;5008477;28;20516;-69
2021/08/09 05:03:36;;;;;;;6.10;3.70;;;;;;;23.52;nan;95274.28;5025566;28;20594;-70
2021/08/09 05:06:01;;;;;;;6.07;3.60;;;;;;;23.65;nan;95277.22;5025604;28;20564;-68
2021/08/09 05:08:27;;;;;;;7.70;3.28;;;;;;;23.84;nan;95272.63;5025899;28;20310;-68
2021/08/09 05:10:52;;;;;;;6.45;3.50;;;;;;;24.00;nan;95278.69;5025751;28;20025;-67
2021/08/09 05:13:18;;;;;;;6.70;3.65;;;;;;;24.15;nan;95281.81;5025501;28;20395;-67
2021/08/09 05:15:43;;;;;;;6.82;3.28;;;;;;;24.26;nan;95254.44;5042020;28;20031;-68
2021/08/09 05:18:12;;;;;;;8.68;3.70;;;;;;;24.56;nan;95274.31;5024214;28;20024;-69
2021/08/09 05:20:37;;;;;;;5.80;3.50;;;;;;;24.77;nan;95278.06;5015429;28;20037;-68
2021/08/09 05:23:03;;;;;;;8.20;4.93;;;;;;;24.94;nan;95271.91;5042323;28;20021;-69
2021/08/09 05:25:28;;;;;;;487.95;175.55;;;;;;;25.13;nan;95286.41;5041912;28;20603;-69
2021/08/09 05:27:54;;;;;;;802.13;435.33;;;;;;;25.29;nan;95277.28;5042849;28;20487;-69
2021/08/09 05:30:19;;;;;;;11.13;3.75;;;;;;;25.40;nan;95288.06;5040977;28;20027;-68
2021/08/09 05:32:45;;;;;;;8.32;3.53;;;;;;;25.51;nan;95277.00;5043672;28;20442;-69
2021/08/09 05:35:10;;;;;;;16.17;8.10;;;;;;;25.67;nan;95284.28;5042894;28;20025;-68
2021/08/09 05:37:36;;;;;;;13.13;5.00;;;;;;;25.85;nan;95285.00;5041329;28;20037;-69
2021/08/09 05:40:03;;;;;;;9.70;3.55;;;;;;;25.99;nan;95289.28;5023857;28;20035;-69
2021/08/09 05:42:28;;;;;;;9.75;4.40;;;;;;;26.11;nan;95273.44;5039343;28;20064;-69
2021/08/09 05:44:54;;;;;;;6.68;4.00;;;;;;;26.17;nan;95288.50;5036617;28;20037;-67
2021/08/09 05:47:19;;;;;;;6.97;4.57;;;;;;;26.26;nan;95285.38;5033714;28;20075;-69
2021/08/09 05:49:45;;;;;;;218.23;83.70;;;;;;;26.43;nan;95283.16;5034406;28;20041;-72
2021/08/09 05:52:24;;;;;;;1951.70;742.58;;;;;;;26.42;nan;95270.72;5024510;28;20040;-73
2021/08/09 05:54:49;;;;;;;168.23;41.67;;;;;;;26.51;nan;95284.00;5007345;28;20025;-73
2021/08/09 05:57:15;;;;;;;602.20;207.80;;;;;;;26.72;nan;95282.16;5022412;28;20776;-72
2021/08/09 05:59:40;;;;;;;13.25;4.18;;;;;;;26.88;nan;95290.81;5038783;28;20474;-73
2021/08/09 06:02:06;;;;;;;243.10;104.55;;;;;;;27.04;nan;95287.06;5043065;28;20029;-74
2021/08/09 06:04:32;;;;;;;1999.90;999.90;;;;;;;27.14;nan;95285.38;5018189;28;20045;-74
2021/08/09 06:06:57;;;;;;;1173.00;388.85;;;;;;;27.20;nan;95266.81;5040019;28;20446;-73
2021/08/09 06:09:22;;;;;;;1999.90;999.90;;;;;;;27.32;nan;95273.56;5042097;28;20029;-74
2021/08/09 06:11:48;;;;;;;1495.68;558.38;;;;;;;27.31;nan;95277.59;5041811;28;20102;-73
2021/08/09 06:14:13;;;;;;;1999.90;999.90;;;;;;;27.27;nan;95271.66;5040226;28;20017;-73
2021/08/09 06:16:39;;;;;;;7.75;3.35;;;;;;;27.40;nan;95274.41;5041554;28;20021;-72
2021/08/09 06:19:04;;;;;;;19.42;5.28;;;;;;;27.49;nan;95282.19;5018176;28;20104;-73
2021/08/09 06:21:30;;;;;;;6.82;4.28;;;;;;;27.53;nan;95277.88;5032187;28;20025;-72
2021/08/09 06:23:55;;;;;;;27.15;6.50;;;;;;;27.65;nan;95273.63;5034020;28;20025;-72
2021/08/09 06:26:20;;;;;;;17.10;3.95;;;;;;;27.75;nan;95272.66;5021008;28;20024;-72
2021/08/09 06:28:46;;;;;;;9.50;3.40;;;;;;;27.78;nan;95279.09;5040239;28;20037;-72
2021/08/09 06:31:11;;;;;;;12.43;3.70;;;;;;;27.82;nan;95283.00;5035775;28;20090;-74
2021/08/09 06:33:37;;;;;;;10.10;3.50;;;;;;;27.92;nan;95281.28;5008482;28;20424;-71
2021/08/09 06:36:02;;;;;;;11.13;3.45;;;;;;;27.88;nan;95269.16;5034326;28;20736;-70
2021/08/09 06:38:28;;;;;;;8.43;3.75;;;;;;;28.02;nan;95289.81;5031488;28;20033;-71
2021/08/09 06:40:53;;;;;;;5.97;3.45;;;;;;;28.04;nan;95288.00;5030175;28;20051;-70
2021/08/09 06:43:19;;;;;;;14.38;3.28;;;;;;;28.09;nan;95278.91;5034684;28;20043;-72
2021/08/09 06:45:44;;;;;;;7.32;3.20;;;;;;;28.10;nan;95277.66;5016062;28;20087;-72
2021/08/09 06:48:28;;;;;;;6.35;3.17;;;;;;;28.16;nan;95278.28;5043405;28;20025;-69
2021/08/09 06:50:53;;;;;;;7.05;3.22;;;;;;;28.17;nan;95285.22;5022640;28;20133;-70
2021/08/09 06:53:19;;;;;;;6.85;3.10;;;;;;;28.20;nan;95289.66;5036775;28;20701;-70
2021/08/09 06:55:44;;;;;;;5.72;3.13;;;;;;;28.22;nan;95297.34;5042920;28;20575;-70
2021/08/09 06:58:10;;;;;;;8.85;3.20;;;;;;;28.19;nan;95282.69;5021893;28;20174;-70
2021/08/09 07:00:35;;;;;;;5.13;2.78;;;;;;;28.18;nan;95286.72;5046412;28;20051;-71
2021/08/09 07:03:07;;;;;;;4.85;2.78;;;;;;;28.18;nan;95292.19;5046431;28;20053;-71
2021/08/09 07:05:40;;;;;;;6.97;3.13;;;;;;;28.18;nan;95286.72;5038588;28;20720;-71
2021/08/09 07:08:06;;;;;;;6.47;3.30;;;;;;;28.17;nan;95285.22;5043798;28;20052;-70
2021/08/09 07:10:31;;;;;;;6.15;2.90;;;;;;;28.13;nan;95284.84;5034336;28;20045;-70
2021/08/09 07:12:57;;;;;;;5.32;2.90;;;;;;;28.16;nan;95289.25;5039669;28;20017;-71
2021/08/09 07:15:22;;;;;;;6.43;3.30;;;;;;;28.15;nan;95282.28;5035084;28;20018;-71
2021/08/09 07:17:48;;;;;;;5.72;3.45;;;;;;;28.14;nan;95286.28;5029038;28;20416;-70
2021/08/09 07:20:15;;;;;;;4.15;2.75;;;;;;;28.10;nan;95280.41;5029860;28;20025;-70
2021/08/09 07:22:41;;;;;;;6.13;3.08;;;;;;;28.06;nan;95273.75;5031152;28;20053;-70
2021/08/09 07:25:09;;;;;;;8.43;3.00;;;;;;;28.13;nan;95290.31;5027404;28;20021;-70
2021/08/09 07:27:34;;;;;;;6.80;2.80;;;;;;;28.11;nan;95281.13;5040505;28;20025;-72
2021/08/09 07:30:00;;;;;;;5.85;2.70;;;;;;;28.09;nan;95289.91;4996094;28;20565;-71
2021/08/09 07:32:25;;;;;;;6.15;3.10;;;;;;;28.10;nan;95285.16;5035910;28;20034;-70
2021/08/09 07:34:50;;;;;;;4.68;2.72;;;;;;;28.09;nan;95295.41;5037135;28;20035;-71
2021/08/09 07:37:16;;;;;;;4.60;2.40;;;;;;;28.11;nan;95287.34;5040328;28;20021;-72
2021/08/09 07:39:41;;;;;;;10.68;3.38;;;;;;;28.10;nan;95288.66;5037034;28;20419;-73
2021/08/09 07:42:07;;;;;;;4.50;2.67;;;;;;;28.08;nan;95293.88;5038639;28;20397;-70
2021/08/09 07:44:32;;;;;;;5.38;2.95;;;;;;;27.94;nan;95294.47;5033093;28;20029;-75
2021/08/09 07:46:58;;;;;;;5.82;3.13;;;;;;;27.75;nan;95294.63;5018265;28;20515;-70
2021/08/09 07:49:23;;;;;;;4.60;2.83;;;;;;;27.54;nan;95292.34;5034853;28;20032;-69
2021/08/09 07:51:49;;;;;;;4.55;2.55;;;;;;;27.27;nan;95299.81;5027593;28;20026;-69
2021/08/09 07:54:14;;;;;;;4.93;3.35;;;;;;;27.03;nan;95280.09;5027548;28;20038;-70
2021/08/09 07:56:40;;;;;;;3.72;2.58;;;;;;;27.01;nan;95310.06;5009236;28;20025;-70
2021/08/09 07:59:05;;;;;;;5.22;2.78;;;;;;;26.99;nan;95312.56;5026628;28;20033;-71
2021/08/09 08:01:32;;;;;;;3.95;2.72;;;;;;;26.85;nan;95286.38;5027118;28;20029;-70
2021/08/09 08:03:58;;;;;;;3.92;2.83;;;;;;;26.92;nan;95302.25;5020471;28;20165;-70
2021/08/09 08:06:23;;;;;;;6.57;2.85;;;;;;;26.93;nan;95303.72;5027446;28;20033;-69
2021/08/09 08:08:48;;;;;;;3.75;2.40;;;;;;;26.95;nan;95305.91;5036756;28;20037;-70
2021/08/09 08:11:14;;;;;;;6.25;2.72;;;;;;;26.86;nan;95287.88;5023218;28;20041;-71
2021/08/09 08:13:39;;;;;;;5.05;2.70;;;;;;;26.92;nan;95299.50;5027236;28;20427;-71
2021/08/09 08:16:05;;;;;;;3.67;2.33;;;;;;;26.90;nan;95302.00;5008577;28;20033;-71
2021/08/09 08:18:30;;;;;;;3.92;2.45;;;;;;;-140.79;100.00;63287.88;5026757;28;20515;-70
2021/08/09 08:20:56;;;;;;;3.67;2.67;;;;;;;26.81;nan;95291.44;5026897;28;20026;-71
2021/08/09 08:23:21;;;;;;;3.78;2.45;;;;;;;26.76;nan;95293.56;5025232;28;20021;-71
2021/08/09 08:25:47;;;;;;;4.50;2.70;;;;;;;26.79;nan;95304.94;5027117;28;20399;-71
2021/08/09 08:28:12;;;;;;;3.10;2.28;;;;;;;26.77;nan;95295.78;5025244;28;20029;-72
2021/08/09 08:30:38;;;;;;;4.00;2.50;;;;;;;26.76;nan;95299.03;5026309;28;20061;-73
2021/08/09 08:33:03;;;;;;;2.72;2.13;;;;;;;26.74;nan;95301.53;5026216;28;20090;-71
2021/08/09 08:35:29;;;;;;;3.33;2.50;;;;;;;26.70;nan;95296.38;5023773;28;20475;-71
2021/08/09 08:37:54;;;;;;;3.53;2.38;;;;;;;26.70;nan;95295.66;5026267;28;20025;-71
2021/08/09 08:40:20;;;;;;;4.15;2.40;;;;;;;26.66;nan;95295.94;5007374;28;20624;-71
2021/08/09 08:42:48;;;;;;;3.83;2.70;;;;;;;26.58;nan;95278.66;5025143;28;20044;-71
2021/08/09 08:45:21;;;;;;;3.85;2.22;;;;;;;26.65;nan;95293.72;5009779;28;20052;-71
2021/08/09 08:47:47;;;;;;;3.78;2.28;;;;;;;26.63;nan;95296.25;5026043;28;20045;-71
2021/08/09 08:50:15;;;;;;;3.42;2.65;;;;;;;26.53;nan;95281.47;5006170;28;20079;-71
2021/08/09 08:52:47;;;;;;;3.17;2.13;;;;;;;26.61;nan;95298.78;5009691;28;20513;-71
2021/08/09 08:55:15;;;;;;;2.90;2.22;;;;;;;26.58;nan;95283.41;5026093;28;20029;-71
2021/08/09 08:57:40;;;;;;;3.95;2.78;;;;;;;26.59;nan;95284.88;5024992;28;20026;-71
2021/08/09 09:00:06;;;;;;;3.53;2.63;;;;;;;26.60;nan;95297.31;5024557;28;20028;-71
2021/08/09 09:02:36;;;;;;;2.90;2.22;;;;;;;26.59;nan;95284.88;5025305;28;20033;-73
2021/08/09 09:05:18;;;;;;;3.60;2.58;;;;;;;26.59;nan;95290.34;5039296;28;20025;-71
2021/08/09 09:07:53;;;;;;;3.42;2.42;;;;;;;26.58;nan;95288.88;5027672;28;20040;-69
2021/08/09 09:10:29;;;;;;;2.33;2.10;;;;;;;26.46;nan;95265.69;5006869;28;20029;-71
2021/08/09 09:13:14;;;;;;;3.45;2.40;;;;;;;26.47;nan;95272.63;5029915;28;20029;-70
2021/08/09 09:16:05;;;;;;;3.72;2.33;;;;;;;26.62;nan;95278.34;5020011;28;20056;-70
2021/08/09 09:18:52;;;;;;;4.32;2.85;;;;;;;26.67;nan;95280.25;5038718;28;20035;-72
2021/08/09 09:21:38;;;;;;;4.68;2.70;;;;;;;26.73;nan;95278.16;5014743;28;20033;-72
2021/08/09 09:24:09;;;;;;;3.35;2.58;;;;;;;26.77;nan;95273.84;5001152;28;20029;-71
2021/08/09 09:26:36;;;;;;;4.35;2.85;;;;;;;26.86;nan;95282.41;5011820;28;20083;-71
2021/08/09 09:29:10;;;;;;;3.95;2.50;;;;;;;26.94;nan;95283.25;5025974;28;20036;-71
2021/08/09 09:31:36;;;;;;;4.75;2.33;;;;;;;27.01;nan;95282.66;5025307;28;20041;-71
2021/08/09 09:34:03;;;;;;;3.78;2.80;;;;;;;27.07;nan;95286.03;5025749;28;20091;-71
2021/08/09 09:36:31;;;;;;;4.78;2.30;;;;;;;27.12;nan;95270.72;5010028;28;20496;-71
2021/08/09 09:38:56;;;;;;;4.18;2.45;;;;;;;27.19;nan;95276.31;5023645;28;20036;-71
2021/08/09 09:41:22;;;;;;;4.25;2.33;;;;;;;27.28;nan;95273.16;5025134;28;20408;-71
2021/08/09 09:43:48;;;;;;;4.05;2.83;;;;;;;27.34;nan;95271.03;5028110;28;20098;-71
2021/08/09 09:46:24;;;;;;;3.42;2.10;;;;;;;27.42;nan;95261.63;5023687;28;20031;-72
2021/08/09 09:48:49;;;;;;;4.43;2.53;;;;;;;27.49;nan;95265.75;5036061;28;20017;-72
2021/08/09 09:51:16;;;;;;;4.70;2.30;;;;;;;27.53;nan;95277.16;5033657;28;20147;-72
2021/08/09 09:53:43;;;;;;;4.03;2.50;;;;;;;27.57;nan;95261.84;5020243;28;20021;-71
2021/08/09 09:56:08;;;;;;;3.20;2.20;;;;;;;27.62;nan;95252.00;5023788;28;20059;-71
2021/08/09 09:58:38;;;;;;;3.85;2.63;;;;;;;27.67;nan;95253.88;5018672;28;20507;-70
2021/08/09 10:01:04;;;;;;;3.88;2.20;;;;;;;27.73;nan;95251.75;5041515;28;20119;-71
2021/08/09 10:03:31;;;;;;;3.60;2.08;;;;;;;27.78;nan;95255.13;5023511;28;20098;-71
2021/08/09 10:05:57;;;;;;;2.92;2.10;;;;;;;27.84;56.05;95253.00;5025920;28;20580;-70
2021/08/09 10:08:22;;;;;;;2.88;1.92;;;;;;;27.81;nan;95237.59;5025801;28;20028;-71
2021/08/09 10:10:50;;;;;;;3.63;2.60;;;;;;;27.91;nan;95246.84;5022342;28;20032;-70
2021/08/09 10:13:20;;;;;;;2.72;2.05;;;;;;;27.98;nan;95251.69;5043915;28;20046;-71
2021/08/09 10:15:57;;;;;;;4.00;2.20;;;;;;;28.02;nan;95241.09;5042974;28;20427;-69
2021/08/09 10:18:24;;;;;;;4.35;2.10;;;;;;;28.09;nan;95239.75;5026484;28;20024;-71
2021/08/09 10:20:53;;;;;;;2.88;2.30;;;;;;;28.11;nan;95232.44;5005447;28;20132;-72
2021/08/09 10:23:41;;;;;;;2.97;2.10;;;;;;;28.17;nan;95252.25;5002764;28;20082;-71
2021/08/09 10:26:13;;;;;;;3.20;2.20;;;;;;;28.17;nan;95229.56;5033572;28;20034;-71
2021/08/09 10:28:54;;;;;;;3.30;2.22;;;;;;;28.18;nan;95237.25;5039255;28;20415;-71
2021/08/09 10:31:28;;;;;;;3.80;2.30;;;;;;;28.20;nan;95240.22;5040976;28;20040;-70
2021/08/09 10:33:53;;;;;;;2.67;2.10;;;;;;;28.20;nan;95229.22;5041257;28;20021;-71
2021/08/09 10:36:22;;;;;;;3.85;2.22;;;;;;;28.21;nan;95235.47;5040687;28;20036;-71
2021/08/09 10:38:49;;;;;;;3.97;2.30;;;;;;;28.23;nan;95233.63;5026996;28;20115;-71
2021/08/09 10:41:14;;;;;;;3.58;2.38;;;;;;;28.23;nan;95227.41;5045935;28;20044;-71
2021/08/09 10:44:05;;;;;;;3.45;2.30;;;;;;;28.21;nan;95225.22;5047061;28;20717;-70
2021/08/09 10:46:34;;;;;;;6.30;3.38;;;;;;;28.13;nan;95218.16;5043401;28;20044;-71
2021/08/09 10:48:59;;;;;;;3.65;2.42;;;;;;;28.13;nan;95224.41;5027043;28;20163;-71
2021/08/09 10:51:50;;;;;;;3.92;2.20;;;;;;;28.10;nan;95236.47;5020709;28;20458;-71
2021/08/09 10:54:27;;;;;;;3.33;2.22;;;;;;;28.06;nan;95230.53;5033160;28;20242;-71
2021/08/09 10:56:52;;;;;;;3.30;2.30;;;;;;;28.02;nan;95229.38;5033701;28;20060;-72
2021/08/09 10:59:46;;;;;;;4.05;2.30;;;;;;;27.99;nan;95220.19;5033277;28;20030;-71
2021/08/09 11:02:21;;;;;;;4.32;2.38;;;;;;;27.92;nan;95215.41;5031843;28;20064;-71
2021/08/09 11:05:14;;;;;;;4.03;2.63;;;;;;;27.90;nan;95217.91;5041032;28;20048;-71
2021/08/09 11:07:40;;;;;;;3.78;2.33;;;;;;;27.87;nan;95213.50;5036579;28;20029;-71
2021/08/09 11:10:06;;;;;;;4.70;2.83;;;;;;;27.87;nan;95218.97;5025839;28;20044;-72
2021/08/09 11:12:31;;;;;;;4.00;2.45;;;;;;;27.84;nan;95214.56;5025698;28;20040;-71
2021/08/09 11:15:04;;;;;;;4.00;2.50;;;;;;;27.80;nan;95216.91;5029172;28;20029;-71
2021/08/09 11:17:30;;;;;;;3.72;2.58;;;;;;;27.76;nan;95219.25;5029833;28;20082;-71
2021/08/09 11:20:15;;;;;;;3.10;2.47;;;;;;;27.75;nan;95211.53;5028524;28;20025;-72
2021/08/09 11:22:42;;;;;;;4.38;2.58;;;;;;;27.70;nan;95214.41;5012008;28;20021;-71
2021/08/09 11:25:48;;;;;;;2.95;2.17;;;;;;;27.67;nan;95216.22;5028807;28;20121;-71
2021/08/09 11:28:24;;;;;;;3.10;2.28;;;;;;;27.62;nan;95210.84;5011934;28;20041;-70
2021/08/09 11:30:53;;;;;;;3.72;2.45;;;;;;;27.60;nan;95210.66;4994427;28;20040;-70
2021/08/09 11:33:27;;;;;;;3.97;2.60;;;;;;;27.58;nan;95219.41;5028817;28;20029;-70
2021/08/09 11:36:13;;;;;;;3.83;2.80;;;;;;;27.52;nan;95216.06;5029672;28;20552;-71
2021/08/09 11:38:52;;;;;;;3.42;2.45;;;;;;;27.45;nan;95215.94;5017238;28;20041;-71
2021/08/09 11:41:18;;;;;;;4.45;3.22;;;;;;;27.35;nan;95212.16;4994438;28;20108;-70
2021/08/09 11:43:44;;;;;;;5.15;2.50;;;;;;;27.21;nan;95229.91;5028353;28;20861;-71
2021/08/09 11:46:12;;;;;;;3.58;2.40;;;;;;;27.03;nan;95219.78;5028109;28;20025;-70
2021/08/09 11:48:39;;;;;;;4.20;2.88;;;;;;;26.87;nan;95209.84;5028454;28;20496;-71
2021/08/09 11:51:09;;;;;;;3.55;2.60;;;;;;;26.75;nan;95204.38;5010879;28;20078;-71
2021/08/09 11:53:36;;;;;;;4.45;2.70;;;;;;;26.64;nan;95210.81;5028177;28;20090;-72